Portada
METAR-TAF:

METAR-TAF

Aeroports :

Nouakchott, Mauritània

latitud: 18-18-36N, longitud: 015-58-11W, altitud: 3 m

Observació

L'informe es va fer fa 16 minuts, a les 19:30 UTC
Vent 17 kt del Nord-Oest
Temperatura 20°C
Humitat 78%
Pressió 1012 hPa
Visibilitat: 8000 m

METAR: GQNO 221930Z 32017KT 8000 NSC 20/16 Q1012 NOSIG

Hora: 19:46 (19:46 UTC)

Pronòstic

L'informe es va fer fa 2 hores i 46 minuts, a les 17:00 UTC
Pronòstic vàlid del 22 a les 18 UTC al 23 a les 24 UTC
Vent 16 kt del Nord/Nord-Oest
Visibilitat: 7000 m
Evolucionant progressivament
l' 23 a les 07 UTC al 23 a les 10 UTC
Vent 12 kt del Nord/Nord-Est
Evolucionant progressivament
l' 23 a les 12 UTC al 23 a les 14 UTC
Vent 15 kt del Nord/Nord-Oest

TAF: GQNO 221700Z 2218/2324 33016KT 7000 NSC BECMG 2307/2310 03012KT BECMG 2312/2314 33015KT

Observacions i pronòstics meteorològics de més de 4000 aeroports (METAR i TAF).

Les estacions disponibles són els punts grocs i vermells al mapa.

Posi el ratolí al punt desitjat per veure el nom de l'estació.

Feu clic per veure les observacions i els pronòstics meteorològics.

Per canviar el mapa: feu clic els botons verds amb una creu de color negre per apropar; al botó verd amb un guió per allunyar la imatge; o en les fletxes verdes per a mapes adjacents.


METAR-TAF: